createdAt,value
2023-03-20T00:02:38.754Z,101297.84
2023-03-20T00:05:41.712Z,101307.22
2023-03-20T00:08:46.585Z,101306.97
2023-03-20T00:11:51.244Z,101301.59
2023-03-20T00:14:53.861Z,101298.63
2023-03-20T00:17:56.651Z,101302.44
2023-03-20T00:20:59.224Z,101297.75
2023-03-20T00:24:03.216Z,101299.72
2023-03-20T00:27:06.142Z,101292.81
2023-03-20T00:30:19.925Z,101297.94
2023-03-20T00:33:22.506Z,101294.41
2023-03-20T00:36:25.849Z,101294.91
2023-03-20T00:39:29.782Z,101290.31
2023-03-20T00:42:32.419Z,101287.38
2023-03-20T00:45:36.614Z,101287.28
2023-03-20T00:48:40.624Z,101275.72
2023-03-20T00:51:44.497Z,101274.19
2023-03-20T00:54:48.449Z,101274.06
2023-03-20T00:57:53.358Z,101274.78
2023-03-20T01:00:56.651Z,101277.72
2023-03-20T01:03:59.311Z,101273.13
2023-03-20T01:07:01.898Z,101271.31
2023-03-20T01:10:07.487Z,101272.94
2023-03-20T01:13:23.975Z,101285.22
2023-03-20T01:16:28.110Z,101284.50
2023-03-20T01:19:30.862Z,101279.50
2023-03-20T01:22:33.451Z,101275.59
2023-03-20T01:25:37.689Z,101261.88
2023-03-20T01:28:40.424Z,101278.50
2023-03-20T01:31:43.529Z,101281.06
2023-03-20T01:34:47.485Z,101280.69
2023-03-20T01:37:51.188Z,101280.50
2023-03-20T01:40:58.971Z,101283.44
2023-03-20T01:44:07.716Z,101280.38
2023-03-20T01:47:17.370Z,101286.19
2023-03-20T01:50:30.518Z,101287.38
2023-03-20T01:53:33.180Z,101282.88
2023-03-20T01:56:41.893Z,101284.88
2023-03-20T01:59:48.550Z,101284.69
2023-03-20T02:02:51.153Z,101275.25
2023-03-20T02:05:54.790Z,101282.09
2023-03-20T02:08:57.388Z,101284.16
2023-03-20T02:12:02.256Z,101278.59
2023-03-20T02:15:05.099Z,101285.13
2023-03-20T02:18:07.704Z,101285.00
2023-03-20T02:21:33.963Z,101281.88
2023-03-20T02:25:17.821Z,101278.47
2023-03-20T02:28:58.526Z,101277.78
2023-03-20T02:32:37.038Z,101279.56
2023-03-20T02:36:12.989Z,101266.09
2023-03-20T02:39:36.691Z,101274.97
2023-03-20T02:42:46.161Z,101275.19
2023-03-20T02:45:55.629Z,101268.44
2023-03-20T02:49:04.156Z,101268.06
2023-03-20T02:52:15.428Z,101268.44
2023-03-20T02:55:25.341Z,101264.13
2023-03-20T02:58:31.778Z,101262.59
2023-03-20T03:01:41.498Z,101257.66
2023-03-20T03:04:51.592Z,101266.34
2023-03-20T03:07:59.759Z,101260.28
2023-03-20T03:11:07.357Z,101256.19
2023-03-20T03:14:19.022Z,101256.06
2023-03-20T03:17:25.537Z,101265.25
2023-03-20T03:20:31.318Z,101259.78
2023-03-20T03:23:40.784Z,101265.25
2023-03-20T03:26:44.762Z,101269.81
2023-03-20T03:29:53.815Z,101262.34
2023-03-20T03:33:10.938Z,101272.94
2023-03-20T03:36:22.438Z,101264.41
2023-03-20T03:39:32.547Z,101268.44
2023-03-20T03:42:40.424Z,101263.31
2023-03-20T03:45:50.789Z,101260.63
2023-03-20T03:48:58.450Z,101252.44
2023-03-20T03:52:05.265Z,101248.69
2023-03-20T03:55:12.006Z,101247.91
2023-03-20T03:58:20.401Z,101250.19
2023-03-20T04:01:25.605Z,101239.72
2023-03-20T04:04:29.034Z,101250.34
2023-03-20T04:07:31.648Z,101248.41
2023-03-20T04:10:34.401Z,101245.63
2023-03-20T04:13:38.432Z,101245.63
2023-03-20T04:16:41.070Z,101250.16
2023-03-20T04:19:43.744Z,101255.63
2023-03-20T04:22:46.555Z,101268.06
2023-03-20T04:25:49.140Z,101263.31
2023-03-20T04:28:53.101Z,101254.28
2023-03-20T04:31:57.034Z,101252.19
2023-03-20T04:34:59.630Z,101250.56
2023-03-20T04:38:02.578Z,101258.03
2023-03-20T04:41:05.929Z,101243.66
2023-03-20T04:44:10.070Z,101253.47
2023-03-20T04:47:12.660Z,101250.69
2023-03-20T04:50:15.367Z,101241.09
2023-03-20T04:53:18.868Z,101241.75
2023-03-20T04:56:21.456Z,101235.75
2023-03-20T04:59:25.623Z,101243.25
2023-03-20T05:02:28.201Z,101248.22
2023-03-20T05:05:30.843Z,101248.00
2023-03-20T05:08:33.444Z,101256.78
2023-03-20T05:11:36.049Z,101242.44
2023-03-20T05:14:40.004Z,101247.75
2023-03-20T05:17:42.607Z,101245.25
2023-03-20T05:20:45.187Z,101251.97
2023-03-20T05:23:47.793Z,101251.78
2023-03-20T05:26:50.469Z,101244.38
2023-03-20T05:29:54.373Z,101251.94
2023-03-20T05:32:57.850Z,101257.63
2023-03-20T05:36:00.652Z,101267.50
2023-03-20T05:39:03.348Z,101260.06
2023-03-20T05:42:06.219Z,101266.00
2023-03-20T05:45:11.158Z,101262.44
2023-03-20T05:48:13.784Z,101271.19
2023-03-20T05:51:16.606Z,101270.53
2023-03-20T05:54:19.420Z,101278.59
2023-03-20T05:57:22.749Z,101279.41
2023-03-20T06:00:27.029Z,101288.19
2023-03-20T06:03:29.629Z,101287.72
2023-03-20T06:06:32.265Z,101294.16
2023-03-20T06:09:34.841Z,101295.34
2023-03-20T06:12:37.581Z,101288.75
2023-03-20T06:15:41.653Z,101291.38
2023-03-20T06:18:44.338Z,101298.78
2023-03-20T06:21:47.159Z,101297.13
2023-03-20T06:24:49.843Z,101298.88
2023-03-20T06:27:52.466Z,101293.94
2023-03-20T06:30:57.181Z,101304.56
2023-03-20T06:33:59.933Z,101301.09
2023-03-20T06:37:02.652Z,101302.84
2023-03-20T06:40:06.382Z,101312.63
2023-03-20T06:43:08.944Z,101306.41
2023-03-20T06:46:12.921Z,101309.69
2023-03-20T06:49:15.546Z,101303.28
2023-03-20T06:52:19.777Z,101302.91
2023-03-20T06:55:22.401Z,101310.03
2023-03-20T06:58:24.962Z,101305.59
2023-03-20T07:01:29.452Z,101309.06
2023-03-20T07:04:32.524Z,101315.66
2023-03-20T07:07:35.141Z,101309.09
2023-03-20T07:10:38.957Z,101312.72
2023-03-20T07:13:41.614Z,101313.81
2023-03-20T07:16:45.678Z,101317.28
2023-03-20T07:19:48.265Z,101326.47
2023-03-20T07:22:50.888Z,101322.41
2023-03-20T07:25:53.602Z,101328.59
2023-03-20T07:28:56.245Z,101328.38
2023-03-20T07:32:01.059Z,101323.53
2023-03-20T07:35:04.774Z,101321.16
2023-03-20T07:38:07.479Z,101324.63
2023-03-20T07:41:10.172Z,101325.91
2023-03-20T07:44:14.297Z,101335.28
2023-03-20T07:47:18.244Z,101330.59
2023-03-20T07:50:20.944Z,101334.44
2023-03-20T07:53:23.689Z,101337.47
2023-03-20T07:56:26.382Z,101339.22
2023-03-20T07:59:28.930Z,101330.00
2023-03-20T08:02:34.549Z,101331.78
2023-03-20T08:05:37.463Z,101332.75
2023-03-20T08:08:40.456Z,101332.50
2023-03-20T08:11:43.043Z,101332.94
2023-03-20T08:14:45.632Z,101334.56
2023-03-20T08:17:49.557Z,101328.31
2023-03-20T08:20:52.201Z,101333.81
2023-03-20T08:23:54.825Z,101331.72
2023-03-20T08:26:57.630Z,101338.69
2023-03-20T08:30:00.228Z,101345.25
2023-03-20T08:33:04.263Z,101351.25
2023-03-20T08:36:07.839Z,101362.38
2023-03-20T08:39:10.733Z,101367.13
2023-03-20T08:42:13.363Z,101371.34
2023-03-20T08:45:16.950Z,101361.28
2023-03-20T08:48:21.038Z,101360.09
2023-03-20T08:51:23.648Z,101365.97
2023-03-20T08:54:26.322Z,101362.97
2023-03-20T08:57:28.864Z,101357.84
2023-03-20T09:00:32.012Z,101369.41
2023-03-20T09:03:36.400Z,101360.56
2023-03-20T09:06:39.173Z,101362.63
2023-03-20T09:09:42.860Z,101368.81
2023-03-20T09:12:45.449Z,101368.25
2023-03-20T09:15:48.067Z,101365.44
2023-03-20T09:18:52.323Z,101360.81
2023-03-20T09:21:54.979Z,101370.00
2023-03-20T09:24:57.571Z,101362.22
2023-03-20T09:28:00.228Z,101363.28
2023-03-20T09:31:03.037Z,101362.09
2023-03-20T09:34:07.049Z,101356.88
2023-03-20T09:37:09.735Z,101366.50
2023-03-20T09:40:23.422Z,101366.63
2023-03-20T09:43:36.891Z,101365.25
2023-03-20T09:47:19.495Z,101361.94
2023-03-20T09:50:35.518Z,101360.06
2023-03-20T09:53:41.764Z,101366.63
2023-03-20T09:56:44.607Z,101361.09
2023-03-20T09:59:48.298Z,101363.06
2023-03-20T10:02:54.262Z,101369.50
2023-03-20T10:06:01.697Z,101375.41
2023-03-20T10:09:11.077Z,101382.19
2023-03-20T10:12:34.001Z,101382.63
2023-03-20T10:15:47.827Z,101384.06
2023-03-20T10:18:57.952Z,101377.69
2023-03-20T10:22:11.727Z,101375.81
2023-03-20T10:25:24.728Z,101379.84
2023-03-20T10:28:34.171Z,101379.75
2023-03-20T10:31:45.439Z,101378.91
2023-03-20T10:34:57.816Z,101370.47
2023-03-20T10:38:16.348Z,101366.91
2023-03-20T10:41:22.268Z,101365.25
2023-03-20T10:44:32.664Z,101356.56
2023-03-20T10:47:40.297Z,101350.56
2023-03-20T10:50:47.853Z,101345.97
2023-03-20T10:53:56.445Z,101345.78
2023-03-20T10:57:01.645Z,101345.94
2023-03-20T11:00:10.891Z,101340.81
2023-03-20T11:03:22.973Z,101339.72
2023-03-20T11:06:29.325Z,101346.22
2023-03-20T11:09:33.296Z,101346.06
2023-03-20T11:12:38.415Z,101332.28
2023-03-20T11:15:41.135Z,101334.31
2023-03-20T11:18:43.752Z,101330.94
2023-03-20T11:21:48.672Z,101332.22
2023-03-20T11:24:58.785Z,101330.38
2023-03-20T11:28:26.310Z,101330.28
2023-03-20T11:31:35.915Z,101327.72
2023-03-20T11:34:40.990Z,101318.03
2023-03-20T11:37:46.672Z,101323.41
2023-03-20T11:40:53.601Z,101317.50
2023-03-20T11:43:56.535Z,101314.19
2023-03-20T11:47:03.390Z,101313.69
2023-03-20T11:50:08.209Z,101317.13
2023-03-20T11:53:23.105Z,101313.50
2023-03-20T11:56:28.789Z,101315.28
2023-03-20T11:59:33.982Z,101302.09
2023-03-20T12:02:38.235Z,101299.69
2023-03-20T12:05:41.016Z,101299.94
2023-03-20T12:08:52.747Z,101305.38
2023-03-20T12:12:00.306Z,101307.91
2023-03-20T12:15:11.249Z,101302.41
2023-03-20T12:18:22.131Z,101310.09
2023-03-20T12:21:31.909Z,101308.25
2023-03-20T12:24:39.620Z,101306.53
2023-03-20T12:27:51.379Z,101311.78
2023-03-20T12:31:07.289Z,101307.81
2023-03-20T12:34:16.344Z,101309.72
2023-03-20T12:37:19.263Z,101304.25
2023-03-20T12:40:31.367Z,101305.72
2023-03-20T12:43:44.756Z,101313.16
2023-03-20T12:46:54.808Z,101304.25
2023-03-20T12:50:03.004Z,101303.53
2023-03-20T12:53:19.586Z,101302.94
2023-03-20T12:56:46.230Z,101303.84
2023-03-20T13:00:12.828Z,101297.84
2023-03-20T13:03:28.101Z,101288.72
2023-03-20T13:06:40.963Z,101281.03
2023-03-20T13:10:13.628Z,101280.03
2023-03-20T13:13:27.440Z,101276.38
2023-03-20T13:16:43.770Z,101273.88
2023-03-20T13:19:55.423Z,101274.53
2023-03-20T13:23:11.168Z,101265.53
2023-03-20T13:26:26.970Z,101257.88
2023-03-20T13:29:34.823Z,101265.13
2023-03-20T13:32:52.319Z,101257.41
2023-03-20T13:36:00.849Z,101245.19
2023-03-20T13:39:11.599Z,101249.44
2023-03-20T13:42:18.571Z,101257.16
2023-03-20T13:45:32.050Z,101243.53
2023-03-20T13:48:38.764Z,101238.97
2023-03-20T13:51:45.952Z,101247.94
2023-03-20T13:55:01.789Z,101246.47
2023-03-20T13:58:17.261Z,101234.69
2023-03-20T14:01:25.128Z,101238.63
2023-03-20T14:04:31.823Z,101242.38
2023-03-20T14:07:37.248Z,101247.94
2023-03-20T14:10:40.629Z,101237.03
2023-03-20T14:13:47.224Z,101237.47
2023-03-20T14:16:49.881Z,101243.53
2023-03-20T14:19:55.130Z,101243.00
2023-03-20T14:22:58.676Z,101240.13
2023-03-20T14:26:01.626Z,101237.63
2023-03-20T14:29:22.660Z,101234.63
2023-03-20T14:32:36.414Z,101235.56
2023-03-20T14:35:44.896Z,101229.38
2023-03-20T14:39:04.302Z,101239.00
2023-03-20T14:42:25.536Z,101234.13
2023-03-20T14:45:36.926Z,101233.69
2023-03-20T14:48:46.145Z,101236.00
2023-03-20T14:51:54.904Z,101231.47
2023-03-20T14:54:57.526Z,101230.84
2023-03-20T14:58:04.588Z,101232.69
2023-03-20T15:01:10.019Z,101230.03
2023-03-20T15:04:24.101Z,101234.63
2023-03-20T15:07:30.555Z,101233.25
2023-03-20T15:10:37.146Z,101226.00
2023-03-20T15:13:42.148Z,101234.63
2023-03-20T15:16:46.671Z,101234.69
2023-03-20T15:19:49.933Z,101235.69
2023-03-20T15:22:57.969Z,101235.22
2023-03-20T15:26:01.428Z,101237.25
2023-03-20T15:29:06.237Z,101239.38
2023-03-20T15:32:15.104Z,101234.28
2023-03-20T15:35:20.930Z,101242.13
2023-03-20T15:38:35.490Z,101236.94
2023-03-20T15:41:39.272Z,101232.31
2023-03-20T15:44:43.778Z,101230.09
2023-03-20T15:47:46.348Z,101230.16
2023-03-20T15:50:54.429Z,101225.06
2023-03-20T15:53:58.480Z,101233.34
2023-03-20T15:57:01.591Z,101231.72
2023-03-20T16:00:07.373Z,101236.31
2023-03-20T16:03:16.874Z,101232.53
2023-03-20T16:06:21.346Z,101230.25
2023-03-20T16:09:26.141Z,101238.38
2023-03-20T16:12:28.838Z,101226.91
2023-03-20T16:15:33.906Z,101221.72
2023-03-20T16:18:39.227Z,101215.53
2023-03-20T16:21:47.426Z,101228.44
2023-03-20T16:24:55.567Z,101219.06
2023-03-20T16:28:00.427Z,101212.09
2023-03-20T16:31:10.678Z,101214.63
2023-03-20T16:34:19.447Z,101201.19
2023-03-20T16:37:26.918Z,101199.25
2023-03-20T16:40:33.869Z,101212.25
2023-03-20T16:43:39.951Z,101214.31
2023-03-20T16:46:55.798Z,101211.00
2023-03-20T16:50:12.575Z,101209.16
2023-03-20T16:53:19.446Z,101209.44
2023-03-20T16:56:27.343Z,101211.00
2023-03-20T16:59:30.226Z,101201.06
2023-03-20T17:02:37.387Z,101210.88
2023-03-20T17:05:48.946Z,101219.78
2023-03-20T17:08:54.220Z,101226.31
2023-03-20T17:12:06.401Z,101221.34
2023-03-20T17:15:10.701Z,101220.97
2023-03-20T17:18:14.409Z,101230.09
2023-03-20T17:21:16.967Z,101235.97
2023-03-20T17:24:20.128Z,101236.19
2023-03-20T17:27:24.334Z,101234.78
2023-03-20T17:30:27.128Z,101239.38
2023-03-20T17:33:29.822Z,101237.03
2023-03-20T17:36:33.848Z,101240.69
2023-03-20T17:39:36.412Z,101238.53
2023-03-20T17:42:40.322Z,101235.72
2023-03-20T17:45:43.771Z,101248.72
2023-03-20T17:48:46.471Z,101245.63
2023-03-20T17:51:49.070Z,101247.38
2023-03-20T17:54:51.859Z,101253.16
2023-03-20T17:57:55.801Z,101244.38
2023-03-20T18:00:58.507Z,101253.38
2023-03-20T18:04:01.360Z,101259.91
2023-03-20T18:07:04.558Z,101264.47
2023-03-20T18:10:14.313Z,101267.00
2023-03-20T18:13:20.860Z,101263.69
2023-03-20T18:16:26.124Z,101267.03
2023-03-20T18:19:30.484Z,101268.63
2023-03-20T18:22:33.515Z,101267.03
2023-03-20T18:25:36.758Z,101272.53
2023-03-20T18:28:40.811Z,101263.56
2023-03-20T18:31:44.043Z,101265.41
2023-03-20T18:34:46.827Z,101270.50
2023-03-20T18:37:49.445Z,101272.72
2023-03-20T18:40:52.657Z,101263.31
2023-03-20T18:43:56.792Z,101262.97
2023-03-20T18:46:59.440Z,101266.22
2023-03-20T18:50:02.038Z,101267.31
2023-03-20T18:53:06.132Z,101267.72
2023-03-20T18:56:14.992Z,101267.72
2023-03-20T18:59:19.516Z,101268.81
2023-03-20T19:02:22.167Z,101268.66
2023-03-20T19:05:26.864Z,101259.06
2023-03-20T19:08:30.112Z,101260.09
2023-03-20T19:11:32.776Z,101257.41
2023-03-20T19:14:36.697Z,101257.19
2023-03-20T19:17:39.273Z,101261.72
2023-03-20T19:20:43.697Z,101259.28
2023-03-20T19:23:46.504Z,101264.69
2023-03-20T19:26:49.083Z,101269.69
2023-03-20T19:29:57.018Z,101267.69
2023-03-20T19:33:00.493Z,101262.25
2023-03-20T19:36:04.489Z,101263.38
2023-03-20T19:39:08.908Z,101268.94
2023-03-20T19:42:38.917Z,101262.34
2023-03-20T19:45:38.103Z,101260.09
2023-03-20T19:48:50.079Z,101253.91
2023-03-20T19:51:53.271Z,101250.41
2023-03-20T19:55:02.600Z,101243.34
2023-03-20T19:58:07.275Z,101252.53
2023-03-20T20:01:15.936Z,101251.13
2023-03-20T20:04:18.652Z,101248.84
2023-03-20T20:08:06.295Z,101252.06
2023-03-20T20:10:45.578Z,101250.63
2023-03-20T20:14:05.693Z,101253.22
2023-03-20T20:17:10.898Z,101255.00
2023-03-20T20:20:16.508Z,101250.78
2023-03-20T20:23:20.963Z,101247.63
2023-03-20T20:26:24.277Z,101249.97
2023-03-20T20:29:26.962Z,101244.59
2023-03-20T20:32:31.236Z,101251.88
2023-03-20T20:35:55.816Z,101247.38
2023-03-20T20:38:56.922Z,101253.22
2023-03-20T20:41:59.580Z,101252.06
2023-03-20T20:45:02.168Z,101261.66
2023-03-20T20:48:07.129Z,101258.72
2023-03-20T20:51:09.704Z,101264.09
2023-03-20T20:54:12.275Z,101266.69
2023-03-20T20:57:15.136Z,101273.53
2023-03-20T21:00:19.116Z,101273.19
2023-03-20T21:03:23.179Z,101275.03
2023-03-20T21:06:44.297Z,101277.78
2023-03-20T21:09:48.685Z,101284.63
2023-03-20T21:12:59.637Z,101287.41
2023-03-20T21:16:02.592Z,101285.78
2023-03-20T21:19:06.561Z,101287.66
2023-03-20T21:22:10.992Z,101282.75
2023-03-20T21:25:18.606Z,101290.47
2023-03-20T21:28:22.252Z,101280.03
2023-03-20T21:31:30.874Z,101286.00
2023-03-20T21:34:35.139Z,101281.53
2023-03-20T21:41:07.960Z,101287.41
2023-03-20T21:44:16.647Z,101284.09
2023-03-20T21:51:12.908Z,101277.97
2023-03-20T21:58:27.415Z,101280.97
2023-03-20T22:05:11.111Z,101276.91
2023-03-20T22:08:19.435Z,101278.41
2023-03-20T22:12:01.394Z,101272.78
2023-03-20T22:18:28.820Z,101273.75
2023-03-20T22:21:55.979Z,101281.03
2023-03-20T22:32:02.459Z,101281.84
2023-03-20T22:35:31.425Z,101274.66
2023-03-20T22:38:55.533Z,101282.41
2023-03-20T22:45:01.752Z,101270.78
2023-03-20T22:48:06.452Z,101267.38
2023-03-20T22:51:09.290Z,101279.06
2023-03-20T22:54:11.984Z,101271.28
2023-03-20T22:57:16.473Z,101271.44
2023-03-20T23:00:19.795Z,101275.19
2023-03-20T23:03:39.791Z,101268.09
2023-03-20T23:06:43.392Z,101274.75
2023-03-20T23:09:48.041Z,101270.25
2023-03-20T23:12:51.982Z,101264.91
2023-03-20T23:15:54.629Z,101265.19
2023-03-20T23:18:57.675Z,101267.16
2023-03-20T23:22:00.700Z,101262.94
2023-03-20T23:25:13.350Z,101258.50
2023-03-20T23:28:20.265Z,101259.38
2023-03-20T23:31:24.828Z,101258.13
2023-03-20T23:34:27.601Z,101254.91
2023-03-20T23:37:30.163Z,101251.28
2023-03-20T23:40:32.956Z,101250.03
2023-03-20T23:43:37.756Z,101250.56
2023-03-20T23:46:40.329Z,101241.66
2023-03-20T23:49:45.835Z,101242.66
2023-03-20T23:52:57.205Z,101240.75
2023-03-20T23:56:03.900Z,101234.78
2023-03-20T23:59:20.652Z,101230.66
